Etusivu
METAR-TAF:

METAR-TAF

Lentoasemat :

Valence, Ranska

Leveyspiiri: 44-54-58N, Pituuspiiri: 4-58-06E, korkeus merenpinnasta: 160 m

Tämänhetkinen sää

Tämä raportti tehtiin 36 minuuttia sitten, kello 16.30 UTC
Tuuli 10 kn pohjoisesta
Lämpötila 2°C
Kosteus 75%
Ilmanpaine 1019 hPa
Näkyvyys 10 km tai enemmän
Hajonneita pilviä 3200 ft:n korkeudessa
Hajonneita pilviä 3800 ft:n korkeudessa

METAR: LFLU 141630Z AUTO 01010KT 9999 BKN032 BKN038 02/M02 Q1019

Aika: 18:06 (17:06 UTC)


TAF: puuttuu

Säähavainnot ja -ennusteet yli 4000 lentoasemalta (METAR- ja TAF-raportit).

Käytössä olevat sääasemat on merkitty karttaan keltaisilla ja punaisilla pisteillä.

Aseta hiiri pisteen päälle nähdäksesi sääaseman nimen.

Klikkaa sitten nähdäksesi säähavainnot ja -ennusteet.

Kartan vaihtaminen: klikkaa mustalla rastilla varustettuja vihreitä pisteitä, niin voit zoomata sisään; viivalla varustettua vihreää pistettä, niin voit zoomata ulos tai vihreitä nuolia, niin pääset viereisille kartoille.


METAR-TAF: